createdAt,value
2019-01-30T00:00:29.027Z,272.63
2019-01-30T00:02:57.341Z,283.03
2019-01-30T00:05:25.655Z,277.40
2019-01-30T00:07:54.018Z,291.90
2019-01-30T00:10:22.634Z,288.70
2019-01-30T00:12:50.927Z,294.83
2019-01-30T00:15:19.344Z,277.60
2019-01-30T00:17:47.750Z,272.73
2019-01-30T00:20:16.058Z,251.27
2019-01-30T00:22:44.609Z,252.03
2019-01-30T00:25:13.934Z,245.27
2019-01-30T00:27:42.257Z,231.67
2019-01-30T00:30:24.926Z,238.10
2019-01-30T00:32:53.249Z,227.97
2019-01-30T00:35:21.891Z,239.97
2019-01-30T00:37:50.587Z,229.63
2019-01-30T00:40:20.524Z,225.03
2019-01-30T00:42:49.386Z,234.00
2019-01-30T00:45:20.318Z,242.37
2019-01-30T00:47:48.679Z,244.83
2019-01-30T00:50:18.827Z,239.53
2019-01-30T00:52:47.145Z,238.80
2019-01-30T00:55:15.781Z,253.80
2019-01-30T00:57:44.069Z,239.80
2019-01-30T01:00:15.684Z,233.13
2019-01-30T01:02:44.294Z,231.87
2019-01-30T01:05:13.007Z,231.17
2019-01-30T01:07:41.670Z,227.50
2019-01-30T01:10:15.795Z,227.77
2019-01-30T01:12:44.114Z,222.97
2019-01-30T01:15:14.722Z,223.80
2019-01-30T01:17:43.278Z,218.37
2019-01-30T01:20:16.284Z,195.53
2019-01-30T01:22:45.056Z,172.93
2019-01-30T01:25:15.286Z,167.70
2019-01-30T01:27:43.574Z,116.60
2019-01-30T01:30:25.741Z,151.53
2019-01-30T01:32:54.233Z,138.23
2019-01-30T01:35:22.814Z,120.07
2019-01-30T01:37:51.297Z,127.93
2019-01-30T01:40:19.889Z,116.40
2019-01-30T01:42:48.462Z,124.30
2019-01-30T01:45:18.635Z,109.37
2019-01-30T01:47:47.273Z,108.73
2019-01-30T01:50:17.512Z,106.70
2019-01-30T01:52:46.179Z,91.40
2019-01-30T01:55:14.867Z,106.33
2019-01-30T01:57:43.189Z,103.37
2019-01-30T02:00:21.566Z,98.50
2019-01-30T02:02:49.871Z,97.03
2019-01-30T02:05:20.362Z,95.50
2019-01-30T02:07:48.667Z,90.03
2019-01-30T02:10:18.816Z,85.57
2019-01-30T02:12:47.461Z,87.27
2019-01-30T02:15:18.105Z,82.03
2019-01-30T02:17:46.465Z,80.07
2019-01-30T02:20:20.307Z,81.47
2019-01-30T02:22:48.593Z,84.53
2019-01-30T02:25:16.894Z,98.87
2019-01-30T02:27:45.691Z,94.60
2019-01-30T02:30:19.648Z,90.87
2019-01-30T02:32:48.302Z,90.70
2019-01-30T02:35:16.682Z,85.50
2019-01-30T02:37:45.056Z,82.63
2019-01-30T02:40:18.060Z,82.93
2019-01-30T02:42:46.355Z,76.97
2019-01-30T02:45:20.077Z,77.37
2019-01-30T02:47:48.385Z,77.53
2019-01-30T02:50:18.659Z,76.57
2019-01-30T02:52:47.210Z,71.70
2019-01-30T02:55:17.395Z,70.97
2019-01-30T02:57:46.020Z,69.20
2019-01-30T03:00:26.500Z,68.03
2019-01-30T03:02:55.070Z,66.33
2019-01-30T03:05:23.486Z,65.07
2019-01-30T03:07:52.126Z,63.80
2019-01-30T03:10:21.951Z,61.07
2019-01-30T03:12:50.489Z,58.67
2019-01-30T03:15:19.708Z,58.60
2019-01-30T03:17:48.311Z,58.70
2019-01-30T03:20:19.554Z,56.57
2019-01-30T03:22:47.864Z,55.17
2019-01-30T03:25:17.775Z,53.93
2019-01-30T03:27:46.324Z,54.33
2019-01-30T03:30:17.258Z,52.00
2019-01-30T03:32:45.561Z,51.03
2019-01-30T03:35:14.127Z,50.20
2019-01-30T03:37:42.445Z,50.43
2019-01-30T03:40:16.131Z,48.13
2019-01-30T03:42:44.411Z,49.60
2019-01-30T03:45:17.616Z,47.60
2019-01-30T03:47:45.889Z,46.53
2019-01-30T03:50:15.021Z,46.40
2019-01-30T03:52:43.328Z,45.23
2019-01-30T03:55:14.317Z,43.27
2019-01-30T03:57:42.882Z,43.37
2019-01-30T04:00:23.623Z,43.70
2019-01-30T04:02:52.616Z,41.90
2019-01-30T04:05:20.919Z,39.93
2019-01-30T04:07:49.214Z,41.17
2019-01-30T04:10:22.664Z,39.27
2019-01-30T04:12:51.247Z,37.30
2019-01-30T04:15:19.704Z,37.10
2019-01-30T04:17:48.119Z,38.10
2019-01-30T04:20:18.354Z,38.00
2019-01-30T04:22:46.662Z,36.40
2019-01-30T04:25:15.306Z,35.90
2019-01-30T04:27:43.591Z,34.23
2019-01-30T04:30:17.530Z,35.37
2019-01-30T04:32:46.117Z,35.13
2019-01-30T04:35:14.526Z,33.23
2019-01-30T04:37:43.145Z,33.80
2019-01-30T04:40:14.189Z,32.87
2019-01-30T04:42:42.501Z,30.03
2019-01-30T04:45:13.842Z,31.73
2019-01-30T04:47:42.191Z,30.80
2019-01-30T04:50:10.617Z,31.03
2019-01-30T04:52:39.238Z,29.87
2019-01-30T04:55:09.147Z,29.73
2019-01-30T04:57:37.835Z,27.90
2019-01-30T05:00:15.748Z,28.73
2019-01-30T05:02:44.325Z,27.30
2019-01-30T05:05:13.427Z,27.13
2019-01-30T05:07:41.731Z,27.37
2019-01-30T05:10:12.350Z,27.80
2019-01-30T05:12:40.923Z,26.67
2019-01-30T05:15:17.585Z,26.87
2019-01-30T05:17:46.174Z,24.37
2019-01-30T05:20:17.412Z,25.27
2019-01-30T05:22:45.711Z,28.20
2019-01-30T05:25:14.275Z,26.33
2019-01-30T05:27:42.963Z,24.40
2019-01-30T05:30:17.407Z,26.23
2019-01-30T05:32:45.697Z,28.13
2019-01-30T05:35:13.988Z,29.63
2019-01-30T05:37:42.296Z,27.97
2019-01-30T05:40:13.690Z,29.50
2019-01-30T05:42:42.246Z,28.57
2019-01-30T05:45:13.538Z,26.13
2019-01-30T05:47:41.843Z,27.00
2019-01-30T05:50:10.777Z,24.93
2019-01-30T05:52:39.511Z,24.23
2019-01-30T05:55:09.886Z,25.90
2019-01-30T05:57:38.185Z,28.47
2019-01-30T06:00:12.830Z,28.33
2019-01-30T06:02:41.134Z,30.27
2019-01-30T06:05:09.690Z,27.60
2019-01-30T06:07:38.265Z,28.00
2019-01-30T06:10:08.816Z,27.97
2019-01-30T06:12:37.670Z,28.07
2019-01-30T06:15:14.617Z,28.23
2019-01-30T06:17:42.997Z,28.07
2019-01-30T06:20:19.699Z,26.67
2019-01-30T06:22:48.414Z,25.23
2019-01-30T06:25:16.816Z,25.60
2019-01-30T06:27:45.116Z,25.23
2019-01-30T06:30:15.742Z,25.53
2019-01-30T06:32:44.378Z,25.37
2019-01-30T06:35:12.678Z,24.17
2019-01-30T06:37:41.243Z,23.17
2019-01-30T06:40:13.313Z,22.40
2019-01-30T06:42:41.623Z,23.43
2019-01-30T06:45:09.921Z,22.47
2019-01-30T06:47:38.551Z,22.13
2019-01-30T06:50:10.414Z,21.30
2019-01-30T06:52:38.697Z,21.03
2019-01-30T06:55:07.499Z,19.73
2019-01-30T06:57:36.058Z,19.70
2019-01-30T07:00:07.603Z,21.33
2019-01-30T07:02:36.198Z,18.87
2019-01-30T07:05:05.841Z,19.47
2019-01-30T07:07:34.487Z,19.17
2019-01-30T07:10:03.786Z,18.07
2019-01-30T07:12:32.384Z,17.87
2019-01-30T07:15:00.954Z,17.37
2019-01-30T07:17:29.254Z,17.50
2019-01-30T07:19:57.546Z,17.00
2019-01-30T07:22:26.098Z,16.70
2019-01-30T07:24:54.393Z,17.03
2019-01-30T07:27:22.955Z,16.80
2019-01-30T07:29:51.242Z,17.43
2019-01-30T07:32:19.554Z,15.93
2019-01-30T07:34:48.094Z,17.00
2019-01-30T07:37:16.373Z,16.50
2019-01-30T07:39:44.671Z,15.87
2019-01-30T07:42:12.967Z,15.47
2019-01-30T07:44:50.473Z,15.60
2019-01-30T07:47:11.665Z,15.17
2019-01-30T07:49:40.313Z,15.30
2019-01-30T07:52:08.624Z,15.30
2019-01-30T07:54:36.893Z,13.90
2019-01-30T07:57:05.294Z,13.97
2019-01-30T07:59:33.943Z,14.10
2019-01-30T08:02:02.233Z,15.47
2019-01-30T08:04:30.510Z,13.10
2019-01-30T08:06:58.819Z,14.37
2019-01-30T08:09:27.099Z,13.70
2019-01-30T08:11:55.401Z,13.30
2019-01-30T08:14:23.928Z,13.83
2019-01-30T08:16:52.252Z,11.73
2019-01-30T08:19:20.876Z,12.33
2019-01-30T08:21:49.170Z,13.20
2019-01-30T08:24:17.885Z,13.37
2019-01-30T08:26:46.666Z,13.70
2019-01-30T08:29:15.651Z,14.83
2019-01-30T08:31:44.718Z,14.90
2019-01-30T08:34:13.177Z,23.20
2019-01-30T08:36:41.485Z,28.33
2019-01-30T08:39:09.795Z,26.70
2019-01-30T08:41:38.326Z,28.23
2019-01-30T08:44:06.856Z,72.33
2019-01-30T08:46:35.150Z,59.60
2019-01-30T08:49:03.772Z,59.10
2019-01-30T08:51:32.351Z,61.37
2019-01-30T08:54:00.639Z,59.97
2019-01-30T08:56:28.953Z,62.00
2019-01-30T08:58:57.581Z,75.17
2019-01-30T09:01:25.874Z,108.87
2019-01-30T09:03:54.451Z,80.07
2019-01-30T09:06:22.760Z,81.73
2019-01-30T09:08:51.483Z,78.67
2019-01-30T09:11:20.201Z,79.43
2019-01-30T09:13:48.528Z,76.60
2019-01-30T09:16:16.830Z,74.67
2019-01-30T09:18:45.205Z,74.63
2019-01-30T09:21:13.826Z,74.10
2019-01-30T09:23:42.430Z,71.63
2019-01-30T09:26:10.983Z,69.80
2019-01-30T09:28:39.686Z,69.33
2019-01-30T09:31:08.249Z,68.57
2019-01-30T09:33:36.563Z,67.63
2019-01-30T09:36:05.122Z,69.80
2019-01-30T09:38:33.416Z,83.90
2019-01-30T09:41:01.979Z,87.63
2019-01-30T09:43:30.262Z,90.97
2019-01-30T09:45:58.832Z,85.30
2019-01-30T09:48:27.423Z,89.93
2019-01-30T09:50:55.738Z,87.70
2019-01-30T09:53:24.285Z,85.60
2019-01-30T09:55:52.648Z,86.87
2019-01-30T09:58:21.032Z,83.80
2019-01-30T10:00:49.329Z,81.47
2019-01-30T10:03:17.894Z,80.43
2019-01-30T10:05:46.475Z,77.57
2019-01-30T10:08:14.850Z,78.53
2019-01-30T10:10:43.453Z,76.60
2019-01-30T10:13:12.027Z,75.10
2019-01-30T10:15:43.602Z,72.47
2019-01-30T10:18:13.096Z,91.87
2019-01-30T10:20:44.349Z,104.60
2019-01-30T10:23:13.040Z,113.20
2019-01-30T10:25:41.333Z,114.13
2019-01-30T10:28:16.135Z,109.67
2019-01-30T10:30:44.846Z,104.20
2019-01-30T10:33:13.242Z,110.57
2019-01-30T10:35:41.568Z,116.40
2019-01-30T10:38:10.255Z,126.33
2019-01-30T10:40:38.558Z,127.97
2019-01-30T10:43:07.319Z,124.57
2019-01-30T10:45:38.111Z,123.87
2019-01-30T10:48:05.918Z,121.57
2019-01-30T10:50:34.213Z,114.07
2019-01-30T10:53:02.587Z,117.30
2019-01-30T10:55:33.127Z,111.43
2019-01-30T10:58:02.721Z,115.07
2019-01-30T11:00:40.305Z,115.13
2019-01-30T11:03:08.902Z,129.30
2019-01-30T11:05:37.202Z,121.83
2019-01-30T11:08:06.160Z,118.87
2019-01-30T11:10:34.683Z,118.23
2019-01-30T11:13:03.329Z,111.63
2019-01-30T11:15:31.962Z,111.23
2019-01-30T11:18:00.598Z,104.43
2019-01-30T11:20:29.977Z,106.60
2019-01-30T11:22:58.289Z,101.17
2019-01-30T11:25:35.331Z,100.43
2019-01-30T11:28:03.639Z,90.77
2019-01-30T11:30:32.227Z,89.13
2019-01-30T11:33:00.522Z,83.33
2019-01-30T11:35:28.811Z,83.07
2019-01-30T11:37:57.113Z,82.10
2019-01-30T11:40:25.466Z,77.70
2019-01-30T11:42:54.017Z,74.27
2019-01-30T11:45:25.840Z,73.00
2019-01-30T11:47:54.450Z,72.37
2019-01-30T11:50:22.785Z,72.33
2019-01-30T11:52:51.084Z,68.00
2019-01-30T11:55:19.706Z,67.10
2019-01-30T11:57:48.500Z,67.23
2019-01-30T12:00:21.995Z,76.83
2019-01-30T12:02:50.573Z,72.00
2019-01-30T12:05:19.574Z,67.70
2019-01-30T12:07:48.163Z,63.90
2019-01-30T12:10:16.824Z,64.93
2019-01-30T12:12:45.224Z,73.30
2019-01-30T12:15:19.159Z,68.17
2019-01-30T12:17:47.468Z,64.80
2019-01-30T12:20:15.777Z,71.13
2019-01-30T12:22:44.372Z,74.90
2019-01-30T12:25:22.201Z,70.33
2019-01-30T12:27:51.057Z,63.63
2019-01-30T12:30:27.318Z,63.77
2019-01-30T12:32:55.894Z,69.93
2019-01-30T12:35:24.493Z,64.53
2019-01-30T12:37:52.901Z,64.13
2019-01-30T12:40:22.450Z,70.73
2019-01-30T12:42:50.750Z,86.20
2019-01-30T12:45:33.926Z,97.20
2019-01-30T12:48:02.551Z,80.03
2019-01-30T12:50:31.145Z,74.43
2019-01-30T12:52:59.620Z,70.83
2019-01-30T12:55:29.481Z,67.77
2019-01-30T12:57:58.436Z,68.13
2019-01-30T13:00:32.205Z,63.90
2019-01-30T13:03:00.504Z,60.13
2019-01-30T13:05:28.844Z,58.73
2019-01-30T13:07:57.197Z,60.20
2019-01-30T13:10:25.772Z,86.73
2019-01-30T13:12:54.453Z,74.30
2019-01-30T13:15:27.885Z,69.47
2019-01-30T13:17:56.186Z,75.47
2019-01-30T13:20:24.507Z,70.53
2019-01-30T13:22:52.812Z,69.90
2019-01-30T13:25:23.449Z,65.77
2019-01-30T13:27:51.741Z,65.23
2019-01-30T13:30:34.998Z,63.83
2019-01-30T13:33:03.596Z,59.03
2019-01-30T13:35:32.475Z,56.37
2019-01-30T13:38:00.849Z,58.27
2019-01-30T13:40:31.188Z,53.77
2019-01-30T13:42:59.858Z,52.60
2019-01-30T13:45:29.016Z,51.63
2019-01-30T13:47:57.645Z,50.83
2019-01-30T13:50:27.474Z,48.23
2019-01-30T13:52:55.791Z,47.30
2019-01-30T13:55:24.095Z,47.03
2019-01-30T13:57:52.690Z,51.73
2019-01-30T14:00:34.946Z,56.87
2019-01-30T14:03:03.515Z,56.30
2019-01-30T14:05:31.968Z,51.57
2019-01-30T14:08:00.303Z,51.57
2019-01-30T14:10:28.702Z,48.00
2019-01-30T14:12:57.303Z,44.47
2019-01-30T14:15:27.809Z,43.40
2019-01-30T14:17:56.553Z,44.00
2019-01-30T14:20:24.923Z,41.47
2019-01-30T14:22:53.301Z,45.53
2019-01-30T14:25:21.684Z,52.33
2019-01-30T14:27:50.075Z,47.97
2019-01-30T14:30:24.465Z,49.50
2019-01-30T14:32:52.906Z,48.20
2019-01-30T14:35:21.723Z,47.20
2019-01-30T14:37:50.331Z,45.20
2019-01-30T14:40:22.225Z,63.93
2019-01-30T14:42:50.560Z,69.03
2019-01-30T14:45:19.779Z,64.60
2019-01-30T14:47:50.618Z,60.40
2019-01-30T14:50:24.491Z,60.13
2019-01-30T14:52:52.878Z,54.73
2019-01-30T14:55:21.495Z,50.93
2019-01-30T14:57:50.506Z,49.57
2019-01-30T15:00:20.918Z,55.70
2019-01-30T15:02:49.443Z,72.63
2019-01-30T15:05:22.483Z,62.60
2019-01-30T15:07:49.041Z,60.97
2019-01-30T15:10:19.378Z,56.87
2019-01-30T15:12:47.715Z,55.50
2019-01-30T15:15:18.224Z,53.70
2019-01-30T15:17:46.904Z,49.67
2019-01-30T15:20:23.154Z,48.93
2019-01-30T15:22:51.716Z,47.83
2019-01-30T15:25:21.884Z,48.67
2019-01-30T15:27:50.174Z,44.60
2019-01-30T15:30:24.270Z,41.80
2019-01-30T15:32:53.150Z,42.60
2019-01-30T15:35:32.849Z,49.60
2019-01-30T15:37:51.757Z,63.43
2019-01-30T15:40:25.738Z,79.37
2019-01-30T15:42:54.455Z,83.03
2019-01-30T15:45:24.369Z,76.17
2019-01-30T15:47:52.965Z,68.40
2019-01-30T15:50:33.220Z,66.97
2019-01-30T15:53:02.639Z,64.80
2019-01-30T15:55:31.311Z,63.47
2019-01-30T15:58:05.612Z,60.33
2019-01-30T16:00:42.619Z,58.00
2019-01-30T16:03:11.281Z,56.03
2019-01-30T16:05:45.137Z,54.47
2019-01-30T16:08:09.612Z,51.53
2019-01-30T16:10:37.929Z,62.70
2019-01-30T16:13:06.468Z,58.73
2019-01-30T16:15:38.411Z,78.47
2019-01-30T16:18:06.874Z,72.13
2019-01-30T16:20:35.463Z,67.20
2019-01-30T16:23:04.358Z,66.40
2019-01-30T16:25:32.675Z,65.87
2019-01-30T16:28:01.083Z,62.37
2019-01-30T16:30:29.406Z,62.77
2019-01-30T16:32:58.070Z,58.97
2019-01-30T16:35:29.302Z,59.13
2019-01-30T16:37:58.004Z,57.17
2019-01-30T16:40:26.555Z,55.27
2019-01-30T16:42:55.185Z,54.77
2019-01-30T16:45:29.290Z,53.40
2019-01-30T16:47:57.867Z,53.27
2019-01-30T16:50:26.463Z,57.70
2019-01-30T16:52:55.030Z,55.53
2019-01-30T16:55:23.344Z,54.33
2019-01-30T16:57:51.995Z,53.70
2019-01-30T17:00:31.273Z,52.63
2019-01-30T17:03:00.627Z,48.90
2019-01-30T17:05:29.852Z,51.57
2019-01-30T17:07:59.209Z,49.73
2019-01-30T17:10:27.915Z,50.37
2019-01-30T17:12:56.481Z,50.20
2019-01-30T17:15:28.400Z,55.20
2019-01-30T17:17:56.741Z,54.57
2019-01-30T17:20:30.675Z,55.13
2019-01-30T17:22:59.258Z,55.83
2019-01-30T17:25:27.589Z,53.70
2019-01-30T17:27:55.904Z,51.83
2019-01-30T17:30:35.985Z,52.57
2019-01-30T17:33:04.804Z,50.90
2019-01-30T17:35:33.123Z,49.63
2019-01-30T17:38:01.690Z,53.77
2019-01-30T17:40:30.635Z,84.60
2019-01-30T17:43:01.008Z,87.77
2019-01-30T17:45:29.596Z,84.83
2019-01-30T17:47:57.883Z,80.37
2019-01-30T17:50:28.392Z,88.33
2019-01-30T17:52:56.684Z,88.70
2019-01-30T17:55:26.155Z,90.17
2019-01-30T17:57:55.180Z,86.37
2019-01-30T18:00:37.692Z,88.57
2019-01-30T18:03:06.283Z,88.43
2019-01-30T18:05:34.592Z,86.73
2019-01-30T18:08:02.891Z,83.10
2019-01-30T18:10:31.180Z,85.27
2019-01-30T18:12:59.490Z,87.10
2019-01-30T18:15:28.062Z,84.47
2019-01-30T18:17:56.367Z,81.03
2019-01-30T18:20:24.663Z,81.97
2019-01-30T18:22:53.303Z,77.83
2019-01-30T18:25:21.908Z,69.23
2019-01-30T18:27:50.536Z,64.87
2019-01-30T18:30:22.919Z,67.33
2019-01-30T18:32:51.227Z,76.83
2019-01-30T18:35:19.810Z,68.27
2019-01-30T18:37:48.382Z,63.97
2019-01-30T18:40:25.803Z,66.07
2019-01-30T18:42:54.097Z,62.20
2019-01-30T18:45:25.014Z,64.43
2019-01-30T18:47:54.291Z,59.17
2019-01-30T18:50:27.279Z,58.33
2019-01-30T18:52:55.579Z,61.80
2019-01-30T18:55:24.078Z,59.77
2019-01-30T18:57:52.500Z,63.63
2019-01-30T19:00:24.274Z,69.80
2019-01-30T19:02:52.560Z,62.93
2019-01-30T19:05:20.858Z,62.50
2019-01-30T19:07:49.162Z,62.07
2019-01-30T19:10:18.374Z,58.87
2019-01-30T19:12:47.616Z,59.10
2019-01-30T19:15:18.732Z,60.77
2019-01-30T19:17:47.340Z,54.50
2019-01-30T19:20:21.603Z,55.63
2019-01-30T19:22:50.232Z,59.83
2019-01-30T19:25:18.536Z,58.93
2019-01-30T19:27:47.098Z,54.27
2019-01-30T19:30:22.030Z,54.87
2019-01-30T19:32:50.333Z,59.20
2019-01-30T19:35:18.619Z,54.83
2019-01-30T19:37:47.174Z,53.27
2019-01-30T19:40:16.357Z,49.43
2019-01-30T19:42:44.945Z,47.53
2019-01-30T19:45:16.327Z,46.03
2019-01-30T19:47:44.626Z,45.30
2019-01-30T19:50:18.182Z,42.20
2019-01-30T19:52:46.539Z,43.00
2019-01-30T19:55:14.842Z,42.23
2019-01-30T19:57:43.131Z,42.80
2019-01-30T20:00:14.961Z,41.23
2019-01-30T20:02:43.246Z,39.53
2019-01-30T20:05:13.664Z,40.40
2019-01-30T20:07:42.252Z,37.70
2019-01-30T20:10:19.004Z,38.17
2019-01-30T20:12:47.613Z,40.73
2019-01-30T20:15:15.914Z,38.00
2019-01-30T20:17:44.472Z,37.80
2019-01-30T20:20:17.520Z,40.87
2019-01-30T20:22:46.143Z,46.07
2019-01-30T20:25:25.982Z,43.83
2019-01-30T20:27:54.912Z,39.50
2019-01-30T20:30:24.691Z,40.73
2019-01-30T20:32:52.996Z,39.83
2019-01-30T20:35:21.307Z,38.23
2019-01-30T20:37:49.932Z,37.47
2019-01-30T20:40:23.317Z,38.13
2019-01-30T20:42:52.874Z,36.67
2019-01-30T20:45:33.010Z,35.00
2019-01-30T20:47:51.659Z,34.53
2019-01-30T20:50:28.901Z,33.20
2019-01-30T20:52:57.611Z,43.07
2019-01-30T20:55:26.200Z,46.03
2019-01-30T20:57:54.524Z,52.43
2019-01-30T21:00:35.464Z,53.67
2019-01-30T21:03:04.556Z,79.17
2019-01-30T21:05:32.841Z,69.10
2019-01-30T21:08:01.506Z,70.27
2019-01-30T21:10:33.375Z,70.70
2019-01-30T21:13:01.955Z,66.83
2019-01-30T21:15:30.257Z,62.20
2019-01-30T21:17:58.931Z,62.63
2019-01-30T21:20:27.222Z,61.50
2019-01-30T21:22:55.517Z,55.27
2019-01-30T21:25:25.211Z,56.70
2019-01-30T21:27:53.764Z,59.70
2019-01-30T21:30:24.598Z,62.57
2019-01-30T21:32:52.911Z,125.40
2019-01-30T21:35:21.208Z,167.50
2019-01-30T21:37:49.667Z,138.77
2019-01-30T21:40:19.194Z,125.27
2019-01-30T21:42:48.354Z,125.37
2019-01-30T21:45:18.590Z,126.63
2019-01-30T21:47:46.905Z,128.60
2019-01-30T21:50:15.514Z,122.50
2019-01-30T21:52:44.161Z,125.07
2019-01-30T21:55:17.330Z,129.70
2019-01-30T21:57:45.875Z,146.83
2019-01-30T22:00:16.931Z,146.00
2019-01-30T22:02:45.220Z,150.23
2019-01-30T22:05:13.605Z,151.70
2019-01-30T22:07:42.162Z,145.10
2019-01-30T22:10:16.357Z,142.20
2019-01-30T22:12:44.655Z,158.43
2019-01-30T22:15:15.294Z,178.97
2019-01-30T22:17:43.970Z,206.30
2019-01-30T22:20:18.142Z,182.47
2019-01-30T22:22:46.460Z,171.57
2019-01-30T22:25:20.292Z,166.23
2019-01-30T22:27:47.623Z,163.90
2019-01-30T22:30:25.013Z,158.53
2019-01-30T22:32:53.956Z,154.07
2019-01-30T22:35:23.163Z,158.03
2019-01-30T22:37:51.473Z,153.70
2019-01-30T22:40:20.166Z,152.07
2019-01-30T22:42:48.702Z,143.77
2019-01-30T22:45:21.466Z,140.30
2019-01-30T22:47:50.115Z,140.33
2019-01-30T22:50:19.542Z,136.07
2019-01-30T22:52:48.210Z,134.03
2019-01-30T22:55:18.637Z,133.17
2019-01-30T22:57:46.978Z,138.07
2019-01-30T23:00:32.310Z,138.40
2019-01-30T23:03:00.751Z,131.77
2019-01-30T23:05:38.206Z,156.23
2019-01-30T23:08:08.481Z,148.07
2019-01-30T23:10:46.190Z,144.87
2019-01-30T23:13:21.022Z,147.97
2019-01-30T23:15:58.302Z,142.30
2019-01-30T23:18:32.744Z,139.20
2019-01-30T23:21:16.358Z,132.50
2019-01-30T23:23:53.606Z,136.23
2019-01-30T23:26:40.355Z,139.20
2019-01-30T23:29:18.222Z,135.60
2019-01-30T23:31:55.541Z,128.33
2019-01-30T23:34:36.002Z,127.47
2019-01-30T23:37:13.397Z,127.37
2019-01-30T23:39:54.083Z,122.27
2019-01-30T23:42:47.119Z,117.80
2019-01-30T23:45:30.538Z,119.23
2019-01-30T23:48:22.071Z,116.63
2019-01-30T23:51:08.517Z,113.00
2019-01-30T23:53:57.874Z,107.40
2019-01-30T23:56:35.289Z,105.37
2019-01-30T23:59:15.390Z,108.80
